Map

Track Data

SID SEASON NUMBER BASIN SUBBASIN NAME ISO_TIME NATURE LAT LON WMO_WIND WMO_PRES WMO_AGENCY TRACK_TYPE DIST2LAND LANDFALL IFLAG USA_AGENCY USA_ATCF_ID USA_LAT USA_LON USA_RECORD USA_STATUS USA_WIND USA_PRES USA_SSHS USA_R34_NE USA_R34_SE USA_R34_SW USA_R34_NW USA_R50_NE USA_R50_SE USA_R50_SW USA_R50_NW USA_R64_NE USA_R64_SE USA_R64_SW USA_R64_NW USA_POCI USA_ROCI USA_RMW USA_EYE TOKYO_LAT TOKYO_LON TOKYO_GRADE TOKYO_WIND TOKYO_PRES TOKYO_R50_DIR TOKYO_R50_LONG TOKYO_R50_SHORT TOKYO_R30_DIR TOKYO_R30_LONG TOKYO_R30_SHORT TOKYO_LAND CMA_LAT CMA_LON CMA_CAT CMA_WIND CMA_PRES HKO_LAT HKO_LON HKO_CAT HKO_WIND HKO_PRES NEWDELHI_LAT NEWDELHI_LON NEWDELHI_GRADE NEWDELHI_WIND NEWDELHI_PRES NEWDELHI_CI NEWDELHI_DP NEWDELHI_POCI REUNION_LAT REUNION_LON REUNION_TYPE REUNION_WIND REUNION_PRES REUNION_TNUM REUNION_CI REUNION_RMW REUNION_R34_NE REUNION_R34_SE REUNION_R34_SW REUNION_R34_NW REUNION_R50_NE REUNION_R50_SE REUNION_R50_SW REUNION_R50_NW REUNION_R64_NE REUNION_R64_SE REUNION_R64_SW REUNION_R64_NW BOM_LAT BOM_LON BOM_TYPE BOM_WIND BOM_PRES BOM_TNUM BOM_CI BOM_RMW BOM_R34_NE BOM_R34_SE BOM_R34_SW BOM_R34_NW BOM_R50_NE BOM_R50_SE BOM_R50_SW BOM_R50_NW BOM_R64_NE BOM_R64_SE BOM_R64_SW BOM_R64_NW BOM_ROCI BOM_POCI BOM_EYE BOM_POS_METHOD BOM_PRES_METHOD NADI_LAT NADI_LON NADI_CAT NADI_WIND NADI_PRES WELLINGTON_LAT WELLINGTON_LON WELLINGTON_WIND WELLINGTON_PRES DS824_LAT DS824_LON DS824_STAGE DS824_WIND DS824_PRES TD9636_LAT TD9636_LON TD9636_STAGE TD9636_WIND TD9636_PRES TD9635_LAT TD9635_LON TD9635_WIND TD9635_PRES TD9635_ROCI NEUMANN_LAT NEUMANN_LON NEUMANN_CLASS NEUMANN_WIND NEUMANN_PRES MLC_LAT MLC_LON MLC_CLASS MLC_WIND MLC_PRES USA_GUST BOM_GUST BOM_GUST_PER REUNION_GUST REUNION_GUST_PER USA_SEAHGT USA_SEARAD_NE USA_SEARAD_SE USA_SEARAD_SW USA_SEARAD_NW STORM_SPEED STORM_DIR
1987015S16125 1987 6 SI WA CONNIE 1987-01-15 00:00:00 TS -15.8000 124.800 25 1002 bom main 0 0 ______O_____O_ -1 -15.8000 124.800 20 25 1002 85 3 -15.8000 124.800 TC 25 1002 1 218
1987015S16125 1987 6 SI WA CONNIE 1987-01-15 03:00:00 TS -15.8313 124.779 25 1001 bom main 0 0 ______O_____P_ -1 -15.8000 124.800 20 25 1001 134 3 -15.8625 124.757 TC 27 1000 2 207
1987015S16125 1987 6 SI WA CONNIE 1987-01-15 06:00:00 TS -16.0000 124.700 25 999 bom main 0 0 ______O_____O_ -1 -16.0000 124.700 20 25 999 64 3 -16.0000 124.700 TC 30 999 5 200
1987015S16125 1987 6 SI WA CONNIE 1987-01-15 09:00:00 TS -16.2750 124.608 25 999 bom main 0 0 ______O_____P_ -1 -16.3000 124.600 20 25 999 139 3 -16.2500 124.615 TC 30 999 5 201
1987015S16125 1987 6 SI WA CONNIE 1987-01-15 12:00:00 TS -16.5000 124.500 25 999 bom main 0 0 ______V_____O_ -1 -16.5000 124.500 20 25 999 112 3 -16.5000 124.500 TC 30 999 4 214
1987015S16125 1987 6 SI WA CONNIE 1987-01-15 15:00:00 TS -16.6113 124.375 25 1000 bom main 0 0 ______O_____P_ -1 -16.6000 124.400 20 25 1000 85 3 -16.6225 124.350 TC 30 999 4 235
1987015S16125 1987 6 SI WA CONNIE 1987-01-15 18:00:00 TS -16.7000 124.200 25 1000 bom main 0 0 ______O_____O_ -1 -16.7000 124.200 20 25 1000 124 3 -16.7000 124.200 TC 30 1000 3 235
1987015S16125 1987 6 SI WA CONNIE 1987-01-15 21:00:00 TS -16.7962 124.100 25 999 bom main 0 0 ______O_____P_ -1 -16.8000 124.100 20 25 999 134 3 -16.7925 124.100 TC 27 1001 3 224
1987015S16125 1987 6 SI WA CONNIE 1987-01-16 00:00:00 TS -16.9000 124.000 25 1002 bom main 0 0 ______V_____O_ -1 -16.9000 124.000 20 25 1002 118 3 -16.9000 124.000 TC 25 1002 3 220
1987015S16125 1987 6 SI WA CONNIE 1987-01-16 03:00:00 TS -17.0324 123.898 25 1001 bom main 0 0 ______O_____P_ -1 -17.0000 123.900 20 25 1001 103 3 -17.0649 123.895 TC 27 1000 4 224
1987015S16125 1987 6 SI WA CONNIE 1987-01-16 06:00:00 TS -17.2000 123.700 25 999 bom main 0 0 ______O_____O_ -1 -17.2000 123.700 20 25 999 130 3 -17.2000 123.700 TC 30 999 8 251
1987015S16125 1987 6 SI WA CONNIE 1987-01-16 09:00:00 TS -17.2801 123.150 25 998 bom main 0 0 ______O_____P_ -1 -17.3000 123.000 20 25 998 70 3 -17.2603 123.300 TC 32 998 8 270
1987015S16125 1987 6 SI WA CONNIE 1987-01-16 12:00:00 TS -17.2000 122.900 25 998 bom main 0 0 ______V_____O_ -1 -17.2000 122.900 20 25 998 61 3 -17.2000 122.900 TC 35 998 4 298
1987015S16125 1987 6 SI WA CONNIE 1987-01-16 15:00:00 TS -17.0824 122.764 30 998 bom main 0 0 ______O_____P_ -1 -17.2000 122.800 20 30 998 53 3 -16.9648 122.727 TC 35 997 7 322
1987015S16125 1987 6 SI WA CONNIE 1987-01-16 18:00:00 TS -16.6600 122.460 30 997 bom main 21 21 O_____O___O_O_ jtwc_sh SH101987 -16.5000 121.900 25 -1 -16.7000 122.600 20 30 997 2.00000 166 3 -16.5000 121.900 1 25 -16.7000 122.600 TC 35 997 8 312
1987015S16125 1987 6 SI WA CONNIE 1987-01-16 21:00:00 TS -16.5269 122.114 30 997 bom main 61 61 P_____O___P_P_ SH101987 -16.5450 121.705 25 -1 -16.5000 122.300 20 30 997 2.00000 145 3 -16.5364 121.695 1 25 -16.5401 122.342 TC 35 997 6 281
1987015S16125 1987 6 SI WA CONNIE 1987-01-17 00:00:00 TS -16.5429 121.843 30 997 bom main 85 77 O_____O___O_O_ jtwc_sh SH101987 -16.6000 121.500 25 -1 -16.5000 122.100 20 30 997 2.00000 242 3 -16.6000 121.500 1 25 -16.5000 122.100 TC 35 997 5 255
1987015S16125 1987 6 SI WA CONNIE 1987-01-17 03:00:00 TS -16.6502 121.643 30 996 bom main 86 86 P_____O___P_P_ SH101987 -16.6775 121.285 27 -1 -16.6000 122.000 20 30 996 2.00000 220 3 -16.7108 121.324 1 26 -16.6125 121.963 TC 37 996 4 229
1987015S16125 1987 6 SI WA CONNIE 1987-01-17 06:00:00 TS -16.8148 121.517 30 995 bom main 91 81 O_____O___P_O_ jtwc_sh SH101987 -16.8000 121.100 30 -1 -16.8000 121.900 20 30 995 2.00000 253 3 -16.8590 121.166 1 27 -16.8000 121.900 TC 40 995 4 210
1987015S16125 1987 6 SI WA CONNIE 1987-01-17 09:00:00 TS -16.9619 121.458 30 995 bom main 81 81 P_____O___P_P_ SH101987 -16.9925 120.978 30 -1 -16.9000 121.900 20 30 995 2.50000 328 3 -17.0278 121.025 1 28 -16.9274 121.930 TC 40 994 4 199
1987015S16125 1987 6 SI WA CONNIE 1987-01-17 12:00:00 TS -17.1500 121.400 35 994 bom main 87 85 O_____V___O_O_ jtwc_sh SH101987 -17.2000 120.900 30 -1 -17.1000 121.900 30 35 994 3.00000 242 3 -17.2000 120.900 1 30 -17.1000 121.900 TC 40 994 4 209
1987015S16125 1987 6 SI WA CONNIE 1987-01-17 15:00:00 TS -17.3276 121.245 35 994 bom main 101 98 P_____O___P_P_ SH101987 -17.3575 120.857 32 -1 -17.2000 121.700 30 35 994 3.00000 157 3 -17.3377 120.802 1 33 -17.4152 121.623 TC 40 993 6 219
1987015S16125 1987 6 SI WA CONNIE 1987-01-17 18:00:00 TS -17.5943 121.029 40 993 bom main 116 116 O_____O___P_O_ jtwc_sh SH101987 -17.5000 120.800 35 0 -17.7000 121.300 30 40 993 3.00000 139 3 -17.4773 120.715 1 37 -17.7000 121.300 TC 40 993 4 217
1987015S16125 1987 6 SI WA CONNIE 1987-01-17 21:00:00 TS -17.6857 120.968 45 991 bom main 117 117 P_____O___P_P_ SH101987 -17.6425 120.665 40 0 -17.7000 121.400 30 45 991 3.00000 184 3 -17.6283 120.620 1 41 -17.7722 121.187 TC 45 990 3 232
1987015S16125 1987 6 SI WA CONNIE 1987-01-18 00:00:00 TS -17.8000 120.750 50 988 bom main 130 130 O_____O___O_O_ jtwc_sh SH101987 -17.8000 120.500 45 0 -17.8000 121.000 30 50 988 3.50000 247 3 -17.8000 120.500 2 45 -17.8000 121.000 TC 50 988 6 243
1987015S16125 1987 6 SI WA CONNIE 1987-01-18 03:00:00 TS -17.9541 120.420 50 986 bom main 152 152 P_____O___P_P_ SH101987 -17.9849 120.365 50 0 -17.9000 120.500 30 50 986 3.50000 301 3 -18.0034 120.337 2 47 -17.9279 120.480 TC 52 985 8 242
1987015S16125 1987 6 SI WA CONNIE 1987-01-18 06:00:00 TS -18.1569 120.036 55 983 bom main 183 182 O_____O___P_O_ jtwc_sh SH101987 -18.2000 120.200 55 0 -18.1000 119.900 30 55 983 4.00000 184 3 -18.2275 120.145 2 50 -18.1000 119.900 TC 55 983 8 240
1987015S16125 1987 6 SI WA CONNIE 1987-01-18 09:00:00 TS -18.3457 119.695 60 980 bom main 186 159 P_____O___P_P_ SH101987 -18.4425 119.958 55 0 -18.2000 119.400 30 60 980 4.00000 172 3 -18.4628 119.931 2 52 -18.2774 119.490 TC 60 979 7 231
1987015S16125 1987 6 SI WA CONNIE 1987-01-18 12:00:00 TS -18.6000 119.450 60 976 bom main 159 144 O_____V___O_O_ jtwc_sh SH101987 -18.7000 119.700 55 0 -18.5000 119.200 30 60 976 4.00000 188 3 -18.7000 119.700 2 55 -18.5000 119.200 TC 65 976 7 221
1987015S16125 1987 6 SI WA CONNIE 1987-01-18 15:00:00 TS -18.8436 119.246 65 973 bom main 145 111 P_____O___P_P_ SH101987 -18.9574 119.507 55 0 -18.7000 119.000 40 65 973 4.50000 205 3 -18.9169 119.456 2 55 -18.7999 119.020 TC 70 973 7 217
1987015S16125 1987 6 SI WA CONNIE 1987-01-18 18:00:00 TS -19.1338 119.025 70 970 bom main 112 81 O_____O___P_O_ jtwc_sh SH101987 -19.2000 119.300 55 0 -19.1000 118.700 40 70 970 4.50000 292 3 -19.1351 119.200 2 55 -19.1000 118.900 TC 75 970 7 216
1987015S16125 1987 6 SI WA CONNIE 1987-01-18 21:00:00 TS -19.3689 118.845 75 966 bom main 84 79 P_____O___P_P_ SH101987 -19.4001 119.000 55 0 -19.4000 118.700 40 75 966 4.50000 211 6 -19.3607 118.944 2 55 -19.3150 118.735 TC 80 966 5 220
1987015S16125 1987 6 SI WA CONNIE 1987-01-19 00:00:00 TS -19.5500 118.650 80 962 bom main 79 67 O_____O___O_O_ jtwc_sh SH101987 -19.6000 118.700 55 0 -19.5000 118.600 40 80 962 5.00000 292 6 -19.6000 118.700 2 55 -19.5000 118.600 TC 85 962 5 216
1987015S16125 1987 6 SI WA CONNIE 1987-01-19 03:00:00 TS -19.7921 118.521 85 955 bom main 67 44 P_____O___P_P_ SH101987 -19.8349 118.485 52 0 -19.8000 118.600 40 85 955 334 6 -19.8484 118.465 2 53 -19.6850 118.535 TC 92 956 5 209
1987015S16125 1987 6 SI WA CONNIE 1987-01-19 06:00:00 TS -20.0031 118.387 85 950 bom main 44 11 O_____O___P_O_ jtwc_sh SH101987 -20.1000 118.300 50 0 -19.9000 118.500 40 85 950 301 6 -20.1125 118.248 2 52 -19.9000 118.500 TC 100 950 6 204
1987015S16125 1987 6 SI WA CONNIE 1987-01-19 09:00:00 TS -20.3145 118.271 85 950 bom main 11 0 P_____O___P_P_ SH101987 -20.3850 118.085 50 0 -20.3000 118.500 40 85 950 211 10 6 -20.3953 118.056 2 51 -20.1775 118.443 TC 87 952 6 201
1987015S16125 1987 6 SI WA CONNIE 1987-01-19 12:00:00 TS -20.6000 118.150 80 955 bom main 0 0 O_____V___O_O_ jtwc_sh SH101987 -20.7000 117.900 50 0 -20.5000 118.400 40 80 955 213 9 6 -20.7000 117.900 2 50 -20.5000 118.400 TC 75 955 7 203
1987015S16125 1987 6 SI WA CONNIE 1987-01-19 15:00:00 TS -20.9484 117.979 70 960 bom main 0 0 P_____O___P_P_ SH101987 -21.0425 117.777 50 0 -20.9000 118.000 40 70 960 215 6 -21.0161 117.745 2 50 -20.8350 118.392 TC 67 960 8 205
1987015S16125 1987 6 SI WA CONNIE 1987-01-19 18:00:00 TS -21.2887 117.808 65 965 bom main 0 0 O_____O___P_O_ jtwc_sh SH101987 -21.4000 117.700 50 0 -21.2000 117.500 40 65 965 292 6 -21.3548 117.631 2 50 -21.2000 118.400 TC 60 965 8 185
1987015S16125 1987 6 SI WA CONNIE 1987-01-19 21:00:00 TS -21.6915 117.901 60 970 bom main 0 0 P_____O___P_P_ SH101987 -21.7425 117.620 50 0 -21.7000 118.000 30 60 970 328 6 -21.7161 117.576 2 50 -21.6075 118.407 TC 55 969 8 167
1987015S16125 1987 6 SI WA CONNIE 1987-01-20 00:00:00 TS -22.0500 118.000 55 974 bom main 0 0 O_____O___O_O_ jtwc_sh SH101987 -22.1000 117.600 50 0 -22.0000 118.400 30 55 974 220 6 -22.1000 117.600 2 50 -22.0000 118.400 TC 50 974 7 171
1987015S16125 1987 6 SI WA CONNIE 1987-01-20 03:00:00 TS -22.3921 118.024 50 977 bom main 0 0 P_____O___P_P_ SH101987 -22.4849 117.648 47 0 -22.3000 118.400 30 50 977 215 6 -22.4911 117.693 2 47 -22.2925 118.357 TC 45 977 7 176
1987015S16125 1987 6 SI WA CONNIE 1987-01-20 06:00:00 TS -22.7512 118.066 40 980 bom main 0 0 O_____O___P_O_ jtwc_sh SH101987 -22.9000 117.800 45 0 -22.6000 118.300 30 40 980 253 3 -22.9047 117.865 2 45 -22.6000 118.300 TC 40 980 8 172
1987015S16125 1987 6 SI WA CONNIE 1987-01-20 09:00:00 TS -23.1740 118.145 35 980 bom main 0 0 P_____O___P_P_ SH101987 -23.3350 118.063 42 0 -23.0000 118.200 30 35 980 178 3 -23.3410 118.106 2 42 -23.0200 118.213 TC 35 980 9 167
1987015S16125 1987 6 SI WA CONNIE 1987-01-20 12:00:00 TS -23.6500 118.300 30 980 bom main 0 0 O_____O___O_O_ jtwc_sh SH101987 -23.8000 118.400 40 0 -23.5000 118.200 20 30 980 242 3 -23.8000 118.400 2 40 -23.5000 118.200 TC 30 980 10 157
1987015S16125 1987 6 SI WA CONNIE 1987-01-20 15:00:00 TS -24.1116 118.571 30 980 bom main 0 0 P_____O___P_P_ SH101987 -24.2924 118.735 37 0 -23.9000 118.400 20 30 980 215 3 -24.2915 118.780 2 37 -23.9626 118.370 TC 27 980 11 153
1987015S16125 1987 6 SI WA CONNIE 1987-01-20 18:00:00 TS -24.6404 118.860 30 980 bom main 0 0 O_____O___P_O_ jtwc_sh SH101987 -24.8000 119.100 35 0 -24.5000 118.600 20 30 980 3 -24.8014 119.199 2 35 -24.5000 118.600 TC 25 980 12 156
1987015S16125 1987 6 SI WA CONNIE 1987-01-20 21:00:00 TS -25.2154 119.105 30 980 bom main 0 0 P_____O___P_P_ SH101987 -25.3027 119.492 32 -1 -25.1000 118.800 20 30 980 3 -25.3103 119.595 2 32 -25.1923 118.728 TC 22 981 13 163
1987015S16125 1987 6 SI WA CONNIE 1987-01-21 00:00:00 TS -25.8615 119.285 30 982 bom main 0 0 O_____O___O_O_ jtwc_sh SH101987 -25.8000 119.900 30 -1 -25.9000 118.900 20 30 982 3 -25.8000 119.900 1 30 -25.9000 118.900 TC 20 982 12 160
1987015S16125 1987 6 SI WA CONNIE 1987-01-21 03:00:00 TS -26.3528 119.556 30 985 bom main 0 0 ______O___P_P_ SH101987 -1 -26.3000 119.500 20 30 985 3 -26.2408 119.925 1 -26.5177 119.242 TC 20 986 11 161
1987015S16125 1987 6 SI WA CONNIE 1987-01-21 06:00:00 TS -26.8875 119.689 30 990 bom main 0 0 ______O___P_O_ -1 -27.0000 119.600 20 30 990 3 -26.6624 119.867 1 -27.0000 119.600 TC 20 990 9 167
1987015S16125 1987 6 SI WA CONNIE 1987-01-21 09:00:00 TS -27.1806 119.764 30 990 bom main 0 0 ______O___P_P_ -1 -27.2000 119.700 20 30 990 3 -27.0777 119.851 1 -27.2642 119.742 TC 20 990 7 156
1987015S16125 1987 6 SI WA CONNIE 1987-01-21 12:00:00 TS -27.5000 120.000 25 990 bom main 0 0 ______O___O_O_ -1 -27.5000 120.000 20 25 990 3 -27.5000 120.000 5 -27.5000 120.000 TC 20 990 11 138
1987015S16125 1987 6 SI WA CONNIE 1987-01-21 15:00:00 TS -27.9607 120.561 25 992 bom main 0 0 ______O___P_P_ -1 -28.0000 120.500 20 25 992 3 -27.9610 120.493 5 -27.9210 120.689 TC 20 991 15 127
1987015S16125 1987 6 SI WA CONNIE 1987-01-21 18:00:00 TS -28.4085 121.389 25 993 bom main 0 0 ______O___P_O_ -1 -28.4000 121.500 20 25 993 3 -28.4255 121.166 5 -28.4000 121.500 TC 20 993 16 127
1987015S16125 1987 6 SI WA CONNIE 1987-01-21 21:00:00 TS -28.9495 122.051 25 994 bom main 0 0 ______O___P_P_ -1 -29.1000 122.100 20 25 994 3 -28.8767 121.931 5 -28.8719 122.123 TC 20 993 15 128
1987015S16125 1987 6 SI WA CONNIE 1987-01-22 00:00:00 TS -29.3000 122.700 25 994 bom main 0 0 ______O___O_O_ -1 -29.3000 122.700 20 25 994 3 -29.3000 122.700 5 -29.3000 122.700 TC 20 994 13 119
1987015S16125 1987 6 SI WA CONNIE 1987-01-22 03:00:00 TS -29.5695 123.322 20 993 bom main 0 0 ______O___P_P_ -1 -29.5000 123.300 20 20 993 3 -29.6013 123.372 5 -29.6071 123.294 TC 20 993 12 119
1987015S16125 1987 6 SI WA CONNIE 1987-01-22 06:00:00 TS -29.8958 123.941 20 992 bom main 0 0 ______O___P_O_ -1 -29.9000 123.900 20 20 992 3 -29.8874 124.024 5 -29.9000 123.900 TC 20 992 13 123
1987015S16125 1987 6 SI WA CONNIE 1987-01-22 09:00:00 TS -30.2899 124.601 20 994 bom main 0 0 ______O___P_P_ -1 -30.4000 124.600 20 20 994 3 -30.2297 124.638 5 -30.2401 124.566 TC 20 993 14 126
1987015S16125 1987 6 SI WA CONNIE 1987-01-22 12:00:00 TS -30.7000 125.200 20 994 bom main 0 0 ______O___O_O_ -1 -30.7000 125.200 20 20 994 3 -30.7000 125.200 5 -30.7000 125.200 TC 20 994 15 140
1987015S16125 1987 6 SI WA CONNIE 1987-01-22 15:00:00 TS -31.4558 125.746 20 995 bom main 0 0 ______O___P_P_ -1 -31.7000 125.800 20 20 995 3 -31.3501 125.701 5 -31.3172 125.738 TC 20 995 17 149
1987015S16125 1987 6 SI WA CONNIE 1987-01-22 18:00:00 TS -32.1138 126.188 20 996 bom main 0 0 ______O___P_O_ -1 -32.1000 126.200 20 20 996 3 -32.1504 126.155 5 -32.1000 126.200 TC 20 996 15 152
1987015S16125 1987 6 SI WA CONNIE 1987-01-22 21:00:00 TS -32.7852 126.583 20 996 bom main 56 56 ______O___P_P_ -1 -32.5000 126.500 20 20 996 3 -33.0507 126.582 5 -32.9377 126.667 TC 20 996 20 160
1987015S16125 1987 6 SI WA CONNIE 1987-01-23 00:00:00 TS -34.0000 127.000 20 997 bom main 189 189 ______O___O_O_ -1 -34.0000 127.000 20 20 997 3 -34.0000 127.000 5 -34.0000 127.000 TC 20 997 24 170
1987015S16125 1987 6 SI WA CONNIE 1987-01-23 03:00:00 TS -35.1812 127.108 20 998 bom main 323 323 ______O_____P_ -1 -35.0000 127.100 20 20 998 3 5 -35.3624 127.116 TC 20 996 29 178
1987015S16125 1987 6 SI WA CONNIE 1987-01-23 06:00:00 TS -36.9000 127.100 20 996 bom main 462 ______O_____O_ -1 -36.9000 127.100 20 20 996 3 5 -36.9000 127.100 TC 20 996 34 0

About IBTrACS Database

This database is a web-friendly format of International Best Track Archive for Climate Stewardship (IBTrACS), a global best track data archive curated by NOAA dating back to 1842.

Updated: 2021-12-01